Time;durP1;ratioP1;P1;durP2;ratioP2;P2;SDS_P1;SDS_P2;PMS_P1;PMS_P2;Temp;Humidity;BMP_temperature;BMP_pressure;BME280_temperature;BME280_humidity;BME280_pressure;Samples;Min_cycle;Max_cycle;Signal;HPM_P1;HPM_P2
2022/02/13 00:00:17;;;;;;;34.47;13.63;;;;;;;;;;5144773;27;20485;-80
2022/02/13 00:02:44;;;;;;;34.90;13.37;;;;;;;;;;5146415;27;20503;-79
2022/02/13 00:05:13;;;;;;;26.53;12.07;;;;;;;;;;5151065;27;21093;-79
2022/02/13 00:07:40;;;;;;;26.77;12.17;;;;;;;;;;5146084;27;20551;-79
2022/02/13 00:10:08;;;;;;;39.30;15.20;;;;;;;;;;5148493;27;20615;-80
2022/02/13 00:12:36;;;;;;;30.50;12.93;;;;;;;;;;5145832;27;20563;-80
2022/02/13 00:15:03;;;;;;;39.63;14.30;;;;;;;;;;5146823;27;20516;-79
2022/02/13 00:17:30;;;;;;;28.57;12.33;;;;;;;;;;5147471;27;20878;-80
2022/02/13 00:19:58;;;;;;;29.53;13.03;;;;;;;;;;5150198;27;21077;-79
2022/02/13 00:22:27;;;;;;;35.83;14.73;;;;;;;;;;5146469;27;20972;-80
2022/02/13 00:24:54;;;;;;;32.67;13.13;;;;;;;;;;5147993;27;20445;-79
2022/02/13 00:27:22;;;;;;;39.30;15.37;;;;;;;;;;5145470;27;20457;-79
2022/02/13 00:29:49;;;;;;;39.77;14.53;;;;;;;;;;5146978;27;20513;-80
2022/02/13 00:32:16;;;;;;;34.97;14.90;;;;;;;;;;5145803;27;20478;-80
2022/02/13 00:34:44;;;;;;;35.00;13.20;;;;;;;;;;5144643;27;20979;-79
2022/02/13 00:37:11;;;;;;;31.07;11.57;;;;;;;;;;5143442;27;20474;-79
2022/02/13 00:39:40;;;;;;;26.77;12.30;;;;;;;;;;5148410;27;20593;-78
2022/02/13 00:42:07;;;;;;;31.03;12.20;;;;;;;;;;5144661;27;20457;-79
2022/02/13 00:44:34;;;;;;;33.40;11.67;;;;;;;;;;5146527;27;20938;-80
2022/02/13 00:47:01;;;;;;;26.23;10.97;;;;;;;;;;5147332;27;20829;-79
2022/02/13 00:49:29;;;;;;;30.10;11.27;;;;;;;;;;5151255;27;20536;-78
2022/02/13 00:51:56;;;;;;;29.43;12.07;;;;;;;;;;5152713;27;20473;-79
2022/02/13 00:54:23;;;;;;;27.40;10.43;;;;;;;;;;5148602;27;20463;-80
2022/02/13 00:56:51;;;;;;;28.37;10.47;;;;;;;;;;5149244;27;20857;-79
2022/02/13 00:59:18;;;;;;;25.73;10.10;;;;;;;;;;5150516;27;20585;-79
2022/02/13 01:01:46;;;;;;;28.37;9.93;;;;;;;;;;5149554;27;20831;-78
2022/02/13 01:04:13;;;;;;;31.17;10.40;;;;;;;;;;5150311;27;20456;-78
2022/02/13 01:06:40;;;;;;;27.43;10.43;;;;;;;;;;5151755;27;20825;-78
2022/02/13 01:09:07;;;;;;;24.90;10.10;;;;;;;;;;5145505;27;20536;-79
2022/02/13 01:11:34;;;;;;;27.20;10.07;;;;;;;;;;5146097;27;20914;-79
2022/02/13 01:14:03;;;;;;;26.03;10.47;;;;;;;;;;5149235;27;20463;-78
2022/02/13 01:16:30;;;;;;;25.00;10.93;;;;;;;;;;5151766;27;20472;-79
2022/02/13 01:18:57;;;;;;;25.97;9.87;;;;;;;;;;5150558;27;20494;-79
2022/02/13 01:21:25;;;;;;;28.73;10.67;;;;;;;;;;5148806;27;20473;-78
2022/02/13 01:23:53;;;;;;;31.10;11.07;;;;;;;;;;5148891;27;20522;-79
2022/02/13 01:26:20;;;;;;;27.53;10.43;;;;;;;;;;5150369;27;20821;-78
2022/02/13 01:28:48;;;;;;;24.37;9.20;;;;;;;;;;5149468;27;20943;-79
2022/02/13 01:31:16;;;;;;;23.63;10.00;;;;;;;;;;5152414;27;20472;-79
2022/02/13 01:33:43;;;;;;;21.23;9.93;;;;;;;;;;5149677;27;20456;-79
2022/02/13 01:36:11;;;;;;;23.83;9.53;;;;;;;;;;5149343;27;20437;-79
2022/02/13 01:38:38;;;;;;;23.50;8.67;;;;;;;;;;5146919;27;20457;-79
2022/02/13 01:41:06;;;;;;;26.37;9.33;;;;;;;;;;5149358;27;20830;-80
2022/02/13 01:43:33;;;;;;;23.80;9.67;;;;;;;;;;5147099;27;20504;-81
2022/02/13 01:46:00;;;;;;;22.13;9.00;;;;;;;;;;5149535;27;20527;-80
2022/02/13 01:48:30;;;;;;;23.87;9.03;;;;;;;;;;5147009;27;20817;-79
2022/02/13 01:50:58;;;;;;;24.83;10.20;;;;;;;;;;5149584;27;20457;-80
2022/02/13 01:53:25;;;;;;;23.33;9.50;;;;;;;;;;5148908;27;20457;-80
2022/02/13 01:55:52;;;;;;;21.07;8.83;;;;;;;;;;5148482;27;20820;-80
2022/02/13 01:58:19;;;;;;;23.67;9.30;;;;;;;;;;5150581;27;20957;-80
2022/02/13 02:00:47;;;;;;;21.67;8.83;;;;;;;;;;5146116;27;20516;-80
2022/02/13 02:03:14;;;;;;;29.53;8.47;;;;;;;;;;5150072;27;20450;-80
2022/02/13 02:05:44;;;;;;;22.33;9.47;;;;;;;;;;5149913;27;20539;-80
2022/02/13 02:08:11;;;;;;;22.20;9.37;;;;;;;;;;5147169;27;20808;-80
2022/02/13 02:10:38;;;;;;;21.93;9.03;;;;;;;;;;5148080;27;20556;-80
2022/02/13 02:13:05;;;;;;;21.70;9.20;;;;;;;;;;5148357;27;20505;-80
2022/02/13 02:15:33;;;;;;;25.60;9.33;;;;;;;;;;5148590;27;20467;-80
2022/02/13 02:18:00;;;;;;;22.90;9.60;;;;;;;;;;5152263;27;20488;-80
2022/02/13 02:20:29;;;;;;;24.67;8.43;;;;;;;;;;5149681;27;20477;-80
2022/02/13 02:22:58;;;;;;;25.73;9.67;;;;;;;;;;5152907;27;20442;-80
2022/02/13 02:25:25;;;;;;;20.27;9.33;;;;;;;;;;5149121;27;20464;-81
2022/02/13 02:27:53;;;;;;;23.10;9.33;;;;;;;;;;5147497;27;20459;-81
2022/02/13 02:30:20;;;;;;;24.30;9.30;;;;;;;;;;5147036;27;20831;-81
2022/02/13 02:32:47;;;;;;;22.00;9.40;;;;;;;;;;5146349;27;20543;-80
2022/02/13 02:35:14;;;;;;;29.27;9.50;;;;;;;;;;5147742;27;20448;-80
2022/02/13 02:37:41;;;;;;;25.00;9.63;;;;;;;;;;5145967;27;20446;-81
2022/02/13 02:40:10;;;;;;;23.57;9.83;;;;;;;;;;5147038;27;20479;-80
2022/02/13 02:42:38;;;;;;;21.20;9.07;;;;;;;;;;5146327;27;21062;-80
2022/02/13 02:45:05;;;;;;;26.50;10.07;;;;;;;;;;5141939;27;20973;-80
2022/02/13 02:47:32;;;;;;;24.93;9.50;;;;;;;;;;5144509;27;20489;-79
2022/02/13 02:49:59;;;;;;;22.33;9.00;;;;;;;;;;5143477;27;20851;-80
2022/02/13 02:52:27;;;;;;;26.93;9.73;;;;;;;;;;5148905;27;20461;-80
2022/02/13 02:54:54;;;;;;;24.23;9.07;;;;;;;;;;5144202;27;20446;-80
2022/02/13 02:57:22;;;;;;;23.60;10.17;;;;;;;;;;5148300;27;20580;-79
2022/02/13 02:59:49;;;;;;;25.53;9.23;;;;;;;;;;5146560;27;21041;-79
2022/02/13 03:02:17;;;;;;;23.10;9.13;;;;;;;;;;5146600;27;20535;-80
2022/02/13 03:04:44;;;;;;;23.93;8.83;;;;;;;;;;5145358;27;20453;-79
2022/02/13 03:07:11;;;;;;;26.13;9.30;;;;;;;;;;5149140;27;20467;-80
2022/02/13 03:09:38;;;;;;;21.17;8.57;;;;;;;;;;5142926;27;20454;-80
2022/02/13 03:12:06;;;;;;;21.60;8.47;;;;;;;;;;5143143;27;20581;-80
2022/02/13 03:14:34;;;;;;;22.07;8.60;;;;;;;;;;5147288;27;21826;-79
2022/02/13 03:17:03;;;;;;;23.57;8.47;;;;;;;;;;5146070;27;20556;-80
2022/02/13 03:19:30;;;;;;;21.83;8.77;;;;;;;;;;5148472;27;20482;-80
2022/02/13 03:21:57;;;;;;;23.57;8.57;;;;;;;;;;5146779;27;20870;-79
2022/02/13 03:24:25;;;;;;;32.13;8.30;;;;;;;;;;5147662;27;20444;-80
2022/02/13 03:26:52;;;;;;;23.70;8.47;;;;;;;;;;5144256;27;20486;-80
2022/02/13 03:29:19;;;;;;;19.70;8.37;;;;;;;;;;5143374;27;20441;-80
2022/02/13 03:31:48;;;;;;;24.60;8.50;;;;;;;;;;5146463;27;20639;-80
2022/02/13 03:34:15;;;;;;;22.13;9.07;;;;;;;;;;5145837;27;20457;-80
2022/02/13 03:36:42;;;;;;;22.73;8.37;;;;;;;;;;5143229;27;20442;-80
2022/02/13 03:39:09;;;;;;;26.97;9.90;;;;;;;;;;5148393;27;20469;-81
2022/02/13 03:41:36;;;;;;;21.43;8.83;;;;;;;;;;5146596;27;20472;-80
2022/02/13 03:44:04;;;;;;;29.33;8.50;;;;;;;;;;5145200;27;20523;-80
2022/02/13 03:46:31;;;;;;;23.93;7.93;;;;;;;;;;5144650;27;20445;-80
2022/02/13 03:48:59;;;;;;;28.00;9.13;;;;;;;;;;5144943;27;20468;-80
2022/02/13 03:51:26;;;;;;;22.30;8.87;;;;;;;;;;5142525;27;20504;-79
2022/02/13 03:53:54;;;;;;;20.20;8.10;;;;;;;;;;5142151;27;20462;-79
2022/02/13 03:56:21;;;;;;;23.43;9.03;;;;;;;;;;5148632;27;20468;-79
2022/02/13 03:58:48;;;;;;;21.73;8.77;;;;;;;;;;5145051;27;20942;-80
2022/02/13 04:01:15;;;;;;;25.43;9.23;;;;;;;;;;5148622;27;20492;-80
2022/02/13 04:03:42;;;;;;;21.37;8.20;;;;;;;;;;5145465;27;20930;-79
2022/02/13 04:06:11;;;;;;;25.13;8.17;;;;;;;;;;5146643;27;20537;-79
2022/02/13 04:08:38;;;;;;;25.20;8.00;;;;;;;;;;5143845;27;20445;-79
2022/02/13 04:11:05;;;;;;;19.77;7.43;;;;;;;;;;5147504;27;20495;-79
2022/02/13 04:13:32;;;;;;;18.80;7.57;;;;;;;;;;5142765;27;20456;-79
2022/02/13 04:15:59;;;;;;;20.77;8.10;;;;;;;;;;5141620;27;21015;-79
2022/02/13 04:18:26;;;;;;;18.20;7.30;;;;;;;;;;5143600;27;20458;-81
2022/02/13 04:20:54;;;;;;;20.53;8.53;;;;;;;;;;5145504;27;20485;-80
2022/02/13 04:23:22;;;;;;;25.63;8.17;;;;;;;;;;5148858;27;20545;-80
2022/02/13 04:25:49;;;;;;;23.03;8.23;;;;;;;;;;5147823;27;20449;-80
2022/02/13 04:28:16;;;;;;;17.23;7.57;;;;;;;;;;5150496;27;20939;-79
2022/02/13 04:30:43;;;;;;;16.67;7.30;;;;;;;;;;5149176;27;20465;-80
2022/02/13 04:33:11;;;;;;;20.60;8.17;;;;;;;;;;5147469;27;20555;-80
2022/02/13 04:35:38;;;;;;;18.80;7.50;;;;;;;;;;5149174;27;20455;-80
2022/02/13 04:38:05;;;;;;;21.27;8.40;;;;;;;;;;5149770;27;20460;-79
2022/02/13 04:40:33;;;;;;;25.43;8.17;;;;;;;;;;5153768;27;20485;-80
2022/02/13 04:43:01;;;;;;;23.00;7.10;;;;;;;;;;5148056;27;20441;-80
2022/02/13 04:45:28;;;;;;;19.60;7.50;;;;;;;;;;5148564;27;20521;-79
2022/02/13 04:47:55;;;;;;;20.40;8.10;;;;;;;;;;5151025;27;20974;-79
2022/02/13 04:50:22;;;;;;;19.53;7.17;;;;;;;;;;5149038;27;20587;-79
2022/02/13 04:52:50;;;;;;;20.40;7.83;;;;;;;;;;5148271;27;20467;-79
2022/02/13 04:55:17;;;;;;;21.10;8.57;;;;;;;;;;5152666;27;20459;-80
2022/02/13 04:57:46;;;;;;;24.40;8.70;;;;;;;;;;5150909;27;20453;-80
2022/02/13 05:00:15;;;;;;;22.23;8.07;;;;;;;;;;5146436;27;20494;-80
2022/02/13 05:02:42;;;;;;;23.77;8.00;;;;;;;;;;5148617;27;20444;-79
2022/02/13 05:05:11;;;;;;;23.03;8.03;;;;;;;;;;5149974;27;20474;-80
2022/02/13 05:07:38;;;;;;;22.03;6.97;;;;;;;;;;5147436;27;20457;-78
2022/02/13 05:10:06;;;;;;;21.13;8.07;;;;;;;;;;5152306;27;20473;-80
2022/02/13 05:12:33;;;;;;;20.70;7.40;;;;;;;;;;5149349;27;20485;-80
2022/02/13 05:15:02;;;;;;;20.10;6.97;;;;;;;;;;5148272;27;20488;-78
2022/02/13 05:17:29;;;;;;;17.43;7.37;;;;;;;;;;5144627;27;20483;-79
2022/02/13 05:19:56;;;;;;;25.03;8.00;;;;;;;;;;5147029;27;20495;-79
2022/02/13 05:22:23;;;;;;;18.17;8.10;;;;;;;;;;5150081;27;20481;-80
2022/02/13 05:24:51;;;;;;;18.63;7.93;;;;;;;;;;5149358;27;20937;-79
2022/02/13 05:27:18;;;;;;;24.40;7.90;;;;;;;;;;5146909;27;20552;-78
2022/02/13 05:29:45;;;;;;;23.07;8.57;;;;;;;;;;5145985;27;20456;-79
2022/02/13 05:32:14;;;;;;;22.53;8.30;;;;;;;;;;5147363;27;20470;-80
2022/02/13 05:34:42;;;;;;;21.07;7.73;;;;;;;;;;5151674;27;20460;-79
2022/02/13 05:37:09;;;;;;;26.53;8.33;;;;;;;;;;5146152;27;20457;-79
2022/02/13 05:39:36;;;;;;;22.23;7.80;;;;;;;;;;5147300;27;20548;-79
2022/02/13 05:42:04;;;;;;;23.23;7.33;;;;;;;;;;5146967;27;20575;-80
2022/02/13 05:44:31;;;;;;;22.17;7.50;;;;;;;;;;5146120;27;20453;-79
2022/02/13 05:46:58;;;;;;;17.93;7.73;;;;;;;;;;5145127;27;20464;-79
2022/02/13 05:49:26;;;;;;;23.73;8.30;;;;;;;;;;5151692;27;21022;-79
2022/02/13 05:51:54;;;;;;;26.07;8.97;;;;;;;;;;5148739;27;20503;-80
2022/02/13 05:54:21;;;;;;;25.30;8.70;;;;;;;;;;5152621;27;20476;-80
2022/02/13 05:56:48;;;;;;;17.80;7.27;;;;;;;;;;5145446;27;20823;-79
2022/02/13 05:59:15;;;;;;;18.50;7.43;;;;;;;;;;5147973;27;20464;-79
2022/02/13 06:01:43;;;;;;;17.67;7.43;;;;;;;;;;5147225;27;20827;-79
2022/02/13 06:04:10;;;;;;;23.53;7.07;;;;;;;;;;5148904;27;20512;-79
2022/02/13 06:06:38;;;;;;;22.30;7.30;;;;;;;;;;5148166;27;20458;-79
2022/02/13 06:09:05;;;;;;;18.63;7.80;;;;;;;;;;5149052;27;20463;-80
2022/02/13 06:11:32;;;;;;;20.43;7.90;;;;;;;;;;5147810;27;21037;-80
2022/02/13 06:14:00;;;;;;;23.10;7.77;;;;;;;;;;5143686;27;20521;-80
2022/02/13 06:16:27;;;;;;;19.07;7.70;;;;;;;;;;5148484;27;20448;-80
2022/02/13 06:18:54;;;;;;;24.50;8.20;;;;;;;;;;5145734;27;20777;-79
2022/02/13 06:21:21;;;;;;;18.23;7.17;;;;;;;;;;5146869;27;20489;-79
2022/02/13 06:23:50;;;;;;;19.23;7.00;;;;;;;;;;5148626;27;20457;-80
2022/02/13 06:26:17;;;;;;;17.17;7.00;;;;;;;;;;5149439;27;20449;-80
2022/02/13 06:28:46;;;;;;;16.80;6.47;;;;;;;;;;5146738;27;20543;-80
2022/02/13 06:31:13;;;;;;;19.97;7.37;;;;;;;;;;5148757;27;20469;-80
2022/02/13 06:33:40;;;;;;;21.37;6.50;;;;;;;;;;5145025;27;20486;-80
2022/02/13 06:36:08;;;;;;;20.43;7.30;;;;;;;;;;5148490;27;20955;-78
2022/02/13 06:38:35;;;;;;;19.60;8.30;;;;;;;;;;5147472;27;20541;-79
2022/02/13 06:41:04;;;;;;;23.53;7.77;;;;;;;;;;5148304;27;20496;-79
2022/02/13 06:43:31;;;;;;;21.40;6.90;;;;;;;;;;5144212;27;20457;-80
2022/02/13 06:45:59;;;;;;;16.87;6.90;;;;;;;;;;5147610;27;20935;-79
2022/02/13 06:48:28;;;;;;;20.00;7.17;;;;;;;;;;5146724;27;20457;-79
2022/02/13 06:50:55;;;;;;;22.37;7.03;;;;;;;;;;5145068;27;20466;-80
2022/02/13 06:53:23;;;;;;;31.17;8.93;;;;;;;;;;5148097;27;20948;-79
2022/02/13 06:55:51;;;;;;;20.57;7.93;;;;;;;;;;5148526;27;20459;-79
2022/02/13 06:58:20;;;;;;;18.50;7.07;;;;;;;;;;5147113;27;20935;-80
2022/02/13 07:00:47;;;;;;;20.17;8.20;;;;;;;;;;5147087;27;20989;-79
2022/02/13 07:03:14;;;;;;;18.77;7.30;;;;;;;;;;5150212;27;20450;-80
2022/02/13 07:05:41;;;;;;;21.20;8.03;;;;;;;;;;5147739;27;20541;-80
2022/02/13 07:08:09;;;;;;;22.33;8.27;;;;;;;;;;5149188;27;20485;-81
2022/02/13 07:10:36;;;;;;;23.00;7.73;;;;;;;;;;5144600;27;20508;-81
2022/02/13 07:13:03;;;;;;;22.40;7.97;;;;;;;;;;5147245;27;20543;-80
2022/02/13 07:15:34;;;;;;;18.80;7.83;;;;;;;;;;5147923;27;20453;-80
2022/02/13 07:18:02;;;;;;;14.77;6.23;;;;;;;;;;5148173;27;20457;-80
2022/02/13 07:20:29;;;;;;;23.73;8.20;;;;;;;;;;5146626;27;20437;-80
2022/02/13 07:22:57;;;;;;;19.53;8.83;;;;;;;;;;5146639;27;20480;-80
2022/02/13 07:25:24;;;;;;;22.40;7.77;;;;;;;;;;5150441;27;20450;-80
2022/02/13 07:27:52;;;;;;;23.97;8.10;;;;;;;;;;5148841;27;20465;-79
2022/02/13 07:30:20;;;;;;;24.77;9.60;;;;;;;;;;5148823;27;20518;-79
2022/02/13 07:32:49;;;;;;;31.90;12.00;;;;;;;;;;5146946;27;20826;-80
2022/02/13 07:35:16;;;;;;;28.30;10.73;;;;;;;;;;5146839;27;20552;-80
2022/02/13 07:37:43;;;;;;;28.93;9.77;;;;;;;;;;5147639;27;20454;-79
2022/02/13 07:40:12;;;;;;;23.70;9.37;;;;;;;;;;5144801;27;20457;-80
2022/02/13 07:42:39;;;;;;;22.17;8.97;;;;;;;;;;5149555;27;21073;-79
2022/02/13 07:45:07;;;;;;;36.17;10.37;;;;;;;;;;5145279;27;20453;-79
2022/02/13 07:47:34;;;;;;;24.13;10.37;;;;;;;;;;5146306;27;20453;-79
2022/02/13 07:50:03;;;;;;;26.77;9.97;;;;;;;;;;5145398;27;20487;-79
2022/02/13 07:52:30;;;;;;;23.20;9.17;;;;;;;;;;5148601;27;20492;-79
2022/02/13 07:54:58;;;;;;;26.30;9.80;;;;;;;;;;5148059;27;20449;-80
2022/02/13 07:57:25;;;;;;;25.30;10.23;;;;;;;;;;5147627;27;20513;-80
2022/02/13 07:59:52;;;;;;;31.37;10.27;;;;;;;;;;5149010;27;20455;-80
2022/02/13 08:02:19;;;;;;;27.73;10.63;;;;;;;;;;5149674;27;20561;-80
2022/02/13 08:04:46;;;;;;;31.10;11.00;;;;;;;;;;5151932;27;20559;-80
2022/02/13 08:07:15;;;;;;;34.83;11.33;;;;;;;;;;5146933;27;20533;-80
2022/02/13 08:09:43;;;;;;;33.50;12.23;;;;;;;;;;5147347;27;20445;-80
2022/02/13 08:12:10;;;;;;;37.80;13.07;;;;;;;;;;5144634;27;20473;-79
2022/02/13 08:14:38;;;;;;;31.23;12.20;;;;;;;;;;5143793;27;20488;-80
2022/02/13 08:17:05;;;;;;;33.40;13.00;;;;;;;;;;5146319;27;20524;-79
2022/02/13 08:19:36;;;;;;;40.00;13.97;;;;;;;;;;5149187;27;20453;-80
2022/02/13 08:22:04;;;;;;;28.67;11.70;;;;;;;;;;5145368;27;20482;-80
2022/02/13 08:24:33;;;;;;;32.90;11.73;;;;;;;;;;5146921;27;20569;-79
2022/02/13 08:27:00;;;;;;;30.20;10.97;;;;;;;;;;5149623;27;20536;-79
2022/02/13 08:29:28;;;;;;;31.00;11.73;;;;;;;;;;5150201;27;20502;-80
2022/02/13 08:31:55;;;;;;;29.93;10.97;;;;;;;;;;5146259;27;20477;-80
2022/02/13 08:34:24;;;;;;;27.47;10.60;;;;;;;;;;5148930;27;20477;-80
2022/02/13 08:36:51;;;;;;;29.60;10.53;;;;;;;;;;5142781;27;20464;-79
2022/02/13 08:39:18;;;;;;;33.03;12.27;;;;;;;;;;5145772;27;20488;-78
2022/02/13 08:41:47;;;;;;;35.13;10.53;;;;;;;;;;5145381;27;20557;-79
2022/02/13 08:44:14;;;;;;;22.83;9.40;;;;;;;;;;5141026;27;20456;-78
2022/02/13 08:46:41;;;;;;;26.27;10.40;;;;;;;;;;5150245;27;20523;-80
2022/02/13 08:49:08;;;;;;;29.90;10.63;;;;;;;;;;5144382;27;21006;-80
2022/02/13 08:51:35;;;;;;;28.23;9.83;;;;;;;;;;5142053;27;20462;-79
2022/02/13 08:54:03;;;;;;;24.87;9.90;;;;;;;;;;5144398;27;20946;-80
2022/02/13 08:56:30;;;;;;;23.63;9.63;;;;;;;;;;5147052;27;20464;-80
2022/02/13 08:58:59;;;;;;;23.37;9.77;;;;;;;;;;5142113;27;20889;-80
2022/02/13 09:01:26;;;;;;;24.53;10.17;;;;;;;;;;5144059;27;20486;-80
2022/02/13 09:03:53;;;;;;;24.53;9.50;;;;;;;;;;5152969;27;20452;-80
2022/02/13 09:06:20;;;;;;;22.43;9.70;;;;;;;;;;5153586;27;20455;-80
2022/02/13 09:08:48;;;;;;;24.13;9.83;;;;;;;;;;5143860;27;20245;-79
2022/02/13 09:11:15;;;;;;;23.40;9.57;;;;;;;;;;5144592;27;20878;-79
2022/02/13 09:13:42;;;;;;;22.20;9.83;;;;;;;;;;5146202;27;20807;-80
2022/02/13 09:16:11;;;;;;;22.73;9.93;;;;;;;;;;5149201;27;20454;-81
2022/02/13 09:18:38;;;;;;;20.47;10.13;;;;;;;;;;5144061;27;20462;-79
2022/02/13 09:21:05;;;;;;;24.67;10.43;;;;;;;;;;5148938;27;21016;-79
2022/02/13 09:23:33;;;;;;;20.23;9.37;;;;;;;;;;5148734;27;20460;-79
2022/02/13 09:26:00;;;;;;;21.03;9.50;;;;;;;;;;5144849;27;20477;-79
2022/02/13 09:28:27;;;;;;;24.13;9.67;;;;;;;;;;5147037;27;20442;-81
2022/02/13 09:30:54;;;;;;;23.47;10.50;;;;;;;;;;5152249;27;20479;-80
2022/02/13 09:33:23;;;;;;;22.97;9.93;;;;;;;;;;5148945;27;20480;-80
2022/02/13 09:35:51;;;;;;;25.40;10.60;;;;;;;;;;5143524;27;20489;-80
2022/02/13 09:38:18;;;;;;;26.20;13.10;;;;;;;;;;5150742;27;20490;-79
2022/02/13 09:40:47;;;;;;;23.70;10.50;;;;;;;;;;5144440;27;21111;-80
2022/02/13 09:43:15;;;;;;;24.10;10.80;;;;;;;;;;5153596;27;20483;-80
2022/02/13 09:45:45;;;;;;;25.53;9.77;;;;;;;;;;5146826;27;20839;-79
2022/02/13 09:48:13;;;;;;;24.37;10.10;;;;;;;;;;5153978;27;20533;-79
2022/02/13 09:50:41;;;;;;;24.17;10.50;;;;;;;;;;5153960;27;20533;-80
2022/02/13 09:53:08;;;;;;;31.87;11.53;;;;;;;;;;5149790;27;20299;-80
2022/02/13 09:55:36;;;;;;;22.67;9.93;;;;;;;;;;5153142;27;20441;-80
2022/02/13 09:58:04;;;;;;;24.10;11.03;;;;;;;;;;5150377;27;20540;-80
2022/02/13 10:00:49;;;;;;;20.23;9.20;;;;;;;;;;5148734;27;20287;-80
2022/02/13 10:03:19;;;;;;;20.97;9.90;;;;;;;;;;5150730;27;20306;-80
2022/02/13 10:05:48;;;;;;;19.57;9.37;;;;;;;;;;5153637;27;20215;-79
2022/02/13 10:08:28;;;;;;;18.40;9.40;;;;;;;;;;5145584;27;20400;-79
2022/02/13 10:11:12;;;;;;;27.23;8.70;;;;;;;;;;5150037;27;20249;-80
2022/02/13 10:13:43;;;;;;;16.90;8.57;;;;;;;;;;5152129;27;20207;-80
2022/02/13 10:16:14;;;;;;;19.73;8.50;;;;;;;;;;5149024;27;20666;-80
2022/02/13 10:18:45;;;;;;;17.30;8.53;;;;;;;;;;5150378;27;20223;-78
2022/02/13 10:21:13;;;;;;;21.93;8.93;;;;;;;;;;5150353;27;20581;-80
2022/02/13 10:23:40;;;;;;;18.70;8.57;;;;;;;;;;5152472;27;20658;-80
2022/02/13 10:26:20;;;;;;;16.70;8.40;;;;;;;;;;5152328;27;20200;-79
2022/02/13 10:28:55;;;;;;;20.87;8.57;;;;;;;;;;5151367;27;20195;-80
2022/02/13 10:31:24;;;;;;;17.57;8.60;;;;;;;;;;5148652;27;20231;-80
2022/02/13 10:33:58;;;;;;;16.70;7.80;;;;;;;;;;5152216;27;20326;-80
2022/02/13 10:36:30;;;;;;;16.57;7.70;;;;;;;;;;5150511;27;20211;-80
2022/02/13 10:38:57;;;;;;;15.37;8.03;;;;;;;;;;5151598;27;20263;-79
2022/02/13 10:41:28;;;;;;;17.27;7.90;;;;;;;;;;5151355;27;20310;-79
2022/02/13 10:43:57;;;;;;;22.07;8.63;;;;;;;;;;5152071;27;20280;-78
2022/02/13 10:46:25;;;;;;;17.53;8.00;;;;;;;;;;5149824;27;20267;-79
2022/02/13 10:48:54;;;;;;;19.80;7.77;;;;;;;;;;5153107;27;20216;-79
2022/02/13 10:51:22;;;;;;;18.63;8.43;;;;;;;;;;5153472;27;20216;-78
2022/02/13 10:53:51;;;;;;;21.10;8.23;;;;;;;;;;5155315;27;20191;-78
2022/02/13 10:56:22;;;;;;;15.90;7.50;;;;;;;;;;5157198;27;20200;-76
2022/02/13 10:58:50;;;;;;;18.80;7.57;;;;;;;;;;5160318;27;20219;-79
2022/02/13 11:01:18;;;;;;;14.17;7.30;;;;;;;;;;5158046;27;20215;-77
2022/02/13 11:03:48;;;;;;;20.77;7.80;;;;;;;;;;5158857;27;20219;-78
2022/02/13 11:06:16;;;;;;;16.13;6.83;;;;;;;;;;5156476;27;20293;-79
2022/02/13 11:08:44;;;;;;;21.10;7.30;;;;;;;;;;5155806;27;20208;-80
2022/02/13 11:11:13;;;;;;;17.13;7.43;;;;;;;;;;5157425;27;21801;-80
2022/02/13 11:13:43;;;;;;;19.03;7.77;;;;;;;;;;5156122;27;20196;-79
2022/02/13 11:16:28;;;;;;;16.30;7.27;;;;;;;;;;5153472;27;20234;-80
2022/02/13 11:18:58;;;;;;;14.50;7.30;;;;;;;;;;5156187;27;20228;-79
2022/02/13 11:21:29;;;;;;;20.73;6.87;;;;;;;;;;5157053;27;20223;-80
2022/02/13 11:23:56;;;;;;;13.27;7.43;;;;;;;;;;5155903;27;20203;-80
2022/02/13 11:26:36;;;;;;;15.90;7.50;;;;;;;;;;5158988;27;20199;-78
2022/02/13 11:29:07;;;;;;;15.73;7.43;;;;;;;;;;5153267;27;20643;-79
2022/02/13 11:31:42;;;;;;;20.03;7.90;;;;;;;;;;5152425;27;20267;-80
2022/02/13 11:34:11;;;;;;;17.50;7.70;;;;;;;;;;5153326;27;20226;-77
2022/02/13 11:36:43;;;;;;;15.93;7.43;;;;;;;;;;5157577;27;20905;-76
2022/02/13 11:39:10;;;;;;;18.33;7.90;;;;;;;;;;5154391;27;20244;-80
2022/02/13 11:42:04;;;;;;;14.43;7.47;;;;;;;;;;5152988;27;20231;-80
2022/02/13 11:44:43;;;;;;;18.77;7.67;;;;;;;;;;5151985;27;20692;-79
2022/02/13 11:47:11;;;;;;;19.47;7.73;;;;;;;;;;5152728;27;20267;-78
2022/02/13 11:49:56;;;;;;;22.83;9.03;;;;;;;;;;5154572;27;20227;-76
2022/02/13 11:52:41;;;;;;;15.40;7.70;;;;;;;;;;5106160;27;20298;-76
2022/02/13 11:55:09;;;;;;;15.40;6.90;;;;;;;;;;5094286;28;20197;-77
2022/02/13 11:57:36;;;;;;;18.97;7.63;;;;;;;;;;5093474;28;20198;-78
2022/02/13 12:00:10;;;;;;;13.20;7.10;;;;;;;;;;5089083;28;20270;-75
2022/02/13 12:02:45;;;;;;;15.90;7.13;;;;;;;;;;5092981;28;20226;-78
2022/02/13 12:05:16;;;;;;;13.13;7.30;;;;;;;;;;5090420;28;20202;-79
2022/02/13 12:07:58;;;;;;;15.53;7.77;;;;;;;;;;5089914;28;20213;-78
2022/02/13 12:10:28;;;;;;;20.50;7.03;;;;;;;;;;5089211;28;20221;-79
2022/02/13 12:13:05;;;;;;;15.77;7.03;;;;;;;;;;5087850;28;20209;-79
2022/02/13 12:15:32;;;;;;;11.87;6.27;;;;;;;;;;5091201;28;20262;-78
2022/02/13 12:18:06;;;;;;;17.17;6.33;;;;;;;;;;5088471;28;20672;-78
2022/02/13 12:20:34;;;;;;;14.13;6.07;;;;;;;;;;5088173;28;20232;-77
2022/02/13 12:23:12;;;;;;;12.13;6.10;;;;;;;;;;5091032;28;20311;-78
2022/02/13 12:25:41;;;;;;;17.77;6.47;;;;;;;;;;5086967;28;20629;-78
2022/02/13 12:28:09;;;;;;;15.17;7.10;;;;;;;;;;5089222;28;20243;-78
2022/02/13 12:30:37;;;;;;;15.67;6.83;;;;;;;;;;5088689;28;20229;-77
2022/02/13 12:33:04;;;;;;;17.97;6.20;;;;;;;;;;5089659;28;20206;-79
2022/02/13 12:35:33;;;;;;;12.80;6.93;;;;;;;;;;5090361;28;20254;-78
2022/02/13 12:38:02;;;;;;;17.70;6.93;;;;;;;;;;5093885;28;20216;-78
2022/02/13 12:40:31;;;;;;;14.83;6.60;;;;;;;;;;5088721;28;20198;-79
2022/02/13 12:43:00;;;;;;;16.23;6.70;;;;;;;;;;5088676;28;20206;-77
2022/02/13 12:45:30;;;;;;;13.77;7.37;;;;;;;;;;5089814;28;20705;-79
2022/02/13 12:47:58;;;;;;;13.63;6.90;;;;;;;;;;5086332;28;20209;-79
2022/02/13 12:50:26;;;;;;;15.83;6.33;;;;;;;;;;5089157;28;20290;-78
2022/02/13 12:52:57;;;;;;;16.50;6.93;;;;;;;;;;5088712;28;20568;-79
2022/02/13 12:55:24;;;;;;;18.47;7.67;;;;;;;;;;5089087;28;20294;-78
2022/02/13 12:57:54;;;;;;;15.10;7.13;;;;;;;;;;5089561;28;20232;-79
2022/02/13 13:00:22;;;;;;;15.20;7.80;;;;;;;;;;5091585;28;20637;-79
2022/02/13 13:02:53;;;;;;;14.30;7.07;;;;;;;;;;5085099;28;20281;-79
2022/02/13 13:05:21;;;;;;;20.03;6.70;;;;;;;;;;5073407;28;20305;-78
2022/02/13 13:07:49;;;;;;;16.87;7.00;;;;;;;;;;5073900;28;20571;-79
2022/02/13 13:10:27;;;;;;;14.90;7.43;;;;;;;;;;5072959;28;20566;-77
2022/02/13 13:13:02;;;;;;;16.43;8.03;;;;;;;;;;5071708;28;20726;-77
2022/02/13 13:15:29;;;;;;;17.37;7.33;;;;;;;;;;5075452;28;20202;-80
2022/02/13 13:17:56;;;;;;;19.77;7.23;;;;;;;;;;5076134;28;20289;-80
2022/02/13 13:20:24;;;;;;;14.83;6.93;;;;;;;;;;5077903;28;20235;-79
2022/02/13 13:23:06;;;;;;;21.37;7.20;;;;;;;;;;5074327;28;20332;-78
2022/02/13 13:25:33;;;;;;;15.40;6.77;;;;;;;;;;5075998;28;20297;-79
2022/02/13 13:28:08;;;;;;;15.67;7.63;;;;;;;;;;5076028;28;20217;-79
2022/02/13 13:30:36;;;;;;;15.53;6.77;;;;;;;;;;5074457;28;20788;-80
2022/02/13 13:33:04;;;;;;;16.03;7.83;;;;;;;;;;5074417;28;20249;-79
2022/02/13 13:35:32;;;;;;;14.87;6.80;;;;;;;;;;5075698;28;20274;-79
2022/02/13 13:37:59;;;;;;;17.33;7.10;;;;;;;;;;5077702;28;20232;-80
2022/02/13 13:40:29;;;;;;;13.63;7.30;;;;;;;;;;5073375;28;20212;-78
2022/02/13 13:43:07;;;;;;;16.50;7.07;;;;;;;;;;5073048;28;20563;-79
2022/02/13 13:45:39;;;;;;;17.87;7.00;;;;;;;;;;5072773;28;20201;-79
2022/02/13 13:48:10;;;;;;;15.53;6.87;;;;;;;;;;5074807;28;20206;-79
2022/02/13 13:50:38;;;;;;;13.97;7.03;;;;;;;;;;5072206;28;20312;-78
2022/02/13 13:53:06;;;;;;;15.70;6.90;;;;;;;;;;5072148;28;20591;-79
2022/02/13 13:55:33;;;;;;;14.60;7.43;;;;;;;;;;5072855;28;20202;-79
2022/02/13 13:58:00;;;;;;;18.17;7.73;;;;;;;;;;5071081;28;20206;-78
2022/02/13 14:00:28;;;;;;;16.90;7.90;;;;;;;;;;5073141;28;20248;-79
2022/02/13 14:02:58;;;;;;;16.73;7.40;;;;;;;;;;5073276;28;20218;-80
2022/02/13 14:05:25;;;;;;;14.33;6.93;;;;;;;;;;5073629;28;20214;-77
2022/02/13 14:07:54;;;;;;;18.63;7.33;;;;;;;;;;5073951;28;20248;-78
2022/02/13 14:10:21;;;;;;;18.33;7.17;;;;;;;;;;5073620;28;20209;-78
2022/02/13 14:12:49;;;;;;;17.60;7.50;;;;;;;;;;5073515;28;20697;-78
2022/02/13 14:15:17;;;;;;;16.10;7.10;;;;;;;;;;5070199;28;20199;-79
2022/02/13 14:17:45;;;;;;;18.33;7.37;;;;;;;;;;5073655;28;20774;-78
2022/02/13 14:20:13;;;;;;;14.10;7.37;;;;;;;;;;5072738;28;20241;-78
2022/02/13 14:22:41;;;;;;;14.83;7.00;;;;;;;;;;5073975;28;20310;-80
2022/02/13 14:25:08;;;;;;;17.30;7.57;;;;;;;;;;5076577;28;20256;-76
2022/02/13 14:27:36;;;;;;;14.63;7.13;;;;;;;;;;5073820;28;20315;-79
2022/02/13 14:30:04;;;;;;;16.33;7.60;;;;;;;;;;5073617;28;20634;-79
2022/02/13 14:32:31;;;;;;;16.77;7.60;;;;;;;;;;5073853;28;20230;-77